sensor_id;sensor_type;location;lat;lon;timestamp;P1;P2;P0
63915;PMS5003;50094;51.356;-0.196;2023-07-20T00:01:45;2;1;
63915;PMS5003;50094;51.356;-0.196;2023-07-20T00:04:12;0;0;
63915;PMS5003;50094;51.356;-0.196;2023-07-20T00:06:40;1;1;
63915;PMS5003;50094;51.356;-0.196;2023-07-20T00:09:07;5;2;
63915;PMS5003;50094;51.356;-0.196;2023-07-20T00:11:35;0;0;
63915;PMS5003;50094;51.356;-0.196;2023-07-20T00:14:04;3;2;
63915;PMS5003;50094;51.356;-0.196;2023-07-20T00:16:31;2;2;
63915;PMS5003;50094;51.356;-0.196;2023-07-20T00:18:59;2;2;
63915;PMS5003;50094;51.356;-0.196;2023-07-20T00:21:26;2;2;
63915;PMS5003;50094;51.356;-0.196;2023-07-20T00:23:54;1;0;
63915;PMS5003;50094;51.356;-0.196;2023-07-20T00:26:20;1;1;
63915;PMS5003;50094;51.356;-0.196;2023-07-20T00:28:50;3;1;
63915;PMS5003;50094;51.356;-0.196;2023-07-20T00:31:18;1;1;
63915;PMS5003;50094;51.356;-0.196;2023-07-20T00:33:44;2;1;
63915;PMS5003;50094;51.356;-0.196;2023-07-20T00:36:12;1;1;
63915;PMS5003;50094;51.356;-0.196;2023-07-20T00:38:39;2;1;
63915;PMS5003;50094;51.356;-0.196;2023-07-20T00:41:06;1;1;
63915;PMS5003;50094;51.356;-0.196;2023-07-20T00:43:33;2;1;
63915;PMS5003;50094;51.356;-0.196;2023-07-20T00:46:00;0;0;
63915;PMS5003;50094;51.356;-0.196;2023-07-20T00:48:28;1;1;
63915;PMS5003;50094;51.356;-0.196;2023-07-20T00:50:56;2;2;
63915;PMS5003;50094;51.356;-0.196;2023-07-20T00:53:24;2;1;
63915;PMS5003;50094;51.356;-0.196;2023-07-20T00:55:52;2;1;
63915;PMS5003;50094;51.356;-0.196;2023-07-20T00:58:19;3;2;
63915;PMS5003;50094;51.356;-0.196;2023-07-20T01:00:47;2;1;
63915;PMS5003;50094;51.356;-0.196;2023-07-20T01:03:14;1;1;
63915;PMS5003;50094;51.356;-0.196;2023-07-20T01:05:42;1;1;
63915;PMS5003;50094;51.356;-0.196;2023-07-20T01:08:15;1;1;
63915;PMS5003;50094;51.356;-0.196;2023-07-20T01:10:51;2;2;
63915;PMS5003;50094;51.356;-0.196;2023-07-20T01:13:23;2;1;
63915;PMS5003;50094;51.356;-0.196;2023-07-20T01:15:53;3;2;
63915;PMS5003;50094;51.356;-0.196;2023-07-20T01:18:23;1;1;
63915;PMS5003;50094;51.356;-0.196;2023-07-20T01:20:50;1;1;
63915;PMS5003;50094;51.356;-0.196;2023-07-20T01:23:32;1;1;
63915;PMS5003;50094;51.356;-0.196;2023-07-20T01:26:23;0;0;
63915;PMS5003;50094;51.356;-0.196;2023-07-20T01:29:11;0;0;
63915;PMS5003;50094;51.356;-0.196;2023-07-20T01:31:48;2;2;
63915;PMS5003;50094;51.356;-0.196;2023-07-20T01:34:18;1;1;
63915;PMS5003;50094;51.356;-0.196;2023-07-20T01:36:49;2;1;
63915;PMS5003;50094;51.356;-0.196;2023-07-20T01:39:18;3;1;
63915;PMS5003;50094;51.356;-0.196;2023-07-20T01:41:47;2;2;
63915;PMS5003;50094;51.356;-0.196;2023-07-20T01:44:14;1;1;
63915;PMS5003;50094;51.356;-0.196;2023-07-20T01:46:41;2;1;
63915;PMS5003;50094;51.356;-0.196;2023-07-20T01:49:09;3;2;
63915;PMS5003;50094;51.356;-0.196;2023-07-20T01:51:36;3;2;
63915;PMS5003;50094;51.356;-0.196;2023-07-20T01:54:03;1;1;
63915;PMS5003;50094;51.356;-0.196;2023-07-20T01:56:30;1;1;
63915;PMS5003;50094;51.356;-0.196;2023-07-20T01:58:57;1;1;
63915;PMS5003;50094;51.356;-0.196;2023-07-20T02:01:23;1;1;
63915;PMS5003;50094;51.356;-0.196;2023-07-20T02:03:50;0;0;
63915;PMS5003;50094;51.356;-0.196;2023-07-20T02:06:17;1;1;
63915;PMS5003;50094;51.356;-0.196;2023-07-20T02:08:44;2;1;
63915;PMS5003;50094;51.356;-0.196;2023-07-20T02:11:11;1;1;
63915;PMS5003;50094;51.356;-0.196;2023-07-20T02:13:38;2;2;
63915;PMS5003;50094;51.356;-0.196;2023-07-20T02:16:04;1;1;
63915;PMS5003;50094;51.356;-0.196;2023-07-20T02:18:31;3;1;
63915;PMS5003;50094;51.356;-0.196;2023-07-20T02:20:58;3;1;
63915;PMS5003;50094;51.356;-0.196;2023-07-20T02:23:25;2;2;
63915;PMS5003;50094;51.356;-0.196;2023-07-20T02:25:52;1;1;
63915;PMS5003;50094;51.356;-0.196;2023-07-20T02:28:18;1;0;
63915;PMS5003;50094;51.356;-0.196;2023-07-20T02:30:45;1;1;
63915;PMS5003;50094;51.356;-0.196;2023-07-20T02:33:12;1;1;
63915;PMS5003;50094;51.356;-0.196;2023-07-20T02:35:40;2;2;
63915;PMS5003;50094;51.356;-0.196;2023-07-20T02:38:07;1;1;
63915;PMS5003;50094;51.356;-0.196;2023-07-20T02:40:33;3;2;
63915;PMS5003;50094;51.356;-0.196;2023-07-20T02:43:00;2;1;
63915;PMS5003;50094;51.356;-0.196;2023-07-20T02:45:29;2;2;
63915;PMS5003;50094;51.356;-0.196;2023-07-20T02:47:55;2;2;
63915;PMS5003;50094;51.356;-0.196;2023-07-20T02:50:22;2;2;
63915;PMS5003;50094;51.356;-0.196;2023-07-20T02:52:50;2;2;
63915;PMS5003;50094;51.356;-0.196;2023-07-20T02:55:17;2;2;
63915;PMS5003;50094;51.356;-0.196;2023-07-20T02:57:44;2;1;
63915;PMS5003;50094;51.356;-0.196;2023-07-20T03:00:12;2;2;
63915;PMS5003;50094;51.356;-0.196;2023-07-20T03:02:40;1;1;
63915;PMS5003;50094;51.356;-0.196;2023-07-20T03:05:07;2;2;
63915;PMS5003;50094;51.356;-0.196;2023-07-20T03:07:35;2;2;
63915;PMS5003;50094;51.356;-0.196;2023-07-20T03:10:02;0;0;
63915;PMS5003;50094;51.356;-0.196;2023-07-20T03:12:30;3;0;
63915;PMS5003;50094;51.356;-0.196;2023-07-20T03:14:56;3;1;
63915;PMS5003;50094;51.356;-0.196;2023-07-20T03:17:23;1;1;
63915;PMS5003;50094;51.356;-0.196;2023-07-20T03:19:50;1;1;
63915;PMS5003;50094;51.356;-0.196;2023-07-20T03:22:17;2;2;
63915;PMS5003;50094;51.356;-0.196;2023-07-20T03:24:45;5;4;
63915;PMS5003;50094;51.356;-0.196;2023-07-20T03:27:11;1;1;
63915;PMS5003;50094;51.356;-0.196;2023-07-20T03:29:38;1;1;
63915;PMS5003;50094;51.356;-0.196;2023-07-20T03:32:06;3;2;
63915;PMS5003;50094;51.356;-0.196;2023-07-20T03:34:34;1;1;
63915;PMS5003;50094;51.356;-0.196;2023-07-20T03:37:00;2;2;
63915;PMS5003;50094;51.356;-0.196;2023-07-20T03:39:27;3;2;
63915;PMS5003;50094;51.356;-0.196;2023-07-20T03:41:54;3;3;
63915;PMS5003;50094;51.356;-0.196;2023-07-20T03:44:21;2;1;
63915;PMS5003;50094;51.356;-0.196;2023-07-20T03:46:49;2;1;
63915;PMS5003;50094;51.356;-0.196;2023-07-20T03:49:15;2;2;
63915;PMS5003;50094;51.356;-0.196;2023-07-20T03:51:42;1;1;
63915;PMS5003;50094;51.356;-0.196;2023-07-20T03:54:09;1;0;
63915;PMS5003;50094;51.356;-0.196;2023-07-20T03:56:36;4;3;
63915;PMS5003;50094;51.356;-0.196;2023-07-20T03:59:03;2;2;
63915;PMS5003;50094;51.356;-0.196;2023-07-20T04:01:29;2;2;
63915;PMS5003;50094;51.356;-0.196;2023-07-20T04:03:56;2;2;
63915;PMS5003;50094;51.356;-0.196;2023-07-20T04:06:23;2;2;
63915;PMS5003;50094;51.356;-0.196;2023-07-20T04:08:50;1;1;
63915;PMS5003;50094;51.356;-0.196;2023-07-20T04:11:17;3;2;
63915;PMS5003;50094;51.356;-0.196;2023-07-20T04:13:44;2;2;
63915;PMS5003;50094;51.356;-0.196;2023-07-20T04:16:10;1;1;
63915;PMS5003;50094;51.356;-0.196;2023-07-20T04:18:37;3;2;
63915;PMS5003;50094;51.356;-0.196;2023-07-20T04:21:04;1;1;
63915;PMS5003;50094;51.356;-0.196;2023-07-20T04:23:32;3;2;
63915;PMS5003;50094;51.356;-0.196;2023-07-20T04:25:59;2;2;
63915;PMS5003;50094;51.356;-0.196;2023-07-20T04:28:25;1;1;
63915;PMS5003;50094;51.356;-0.196;2023-07-20T04:30:52;3;3;
63915;PMS5003;50094;51.356;-0.196;2023-07-20T04:33:20;2;2;
63915;PMS5003;50094;51.356;-0.196;2023-07-20T04:35:48;2;2;
63915;PMS5003;50094;51.356;-0.196;2023-07-20T04:38:16;2;2;
63915;PMS5003;50094;51.356;-0.196;2023-07-20T04:40:44;3;3;
63915;PMS5003;50094;51.356;-0.196;2023-07-20T04:43:12;3;2;
63915;PMS5003;50094;51.356;-0.196;2023-07-20T04:45:39;1;1;
63915;PMS5003;50094;51.356;-0.196;2023-07-20T04:48:09;1;0;
63915;PMS5003;50094;51.356;-0.196;2023-07-20T04:50:36;2;2;
63915;PMS5003;50094;51.356;-0.196;2023-07-20T04:53:04;2;2;
63915;PMS5003;50094;51.356;-0.196;2023-07-20T04:55:31;2;2;
63915;PMS5003;50094;51.356;-0.196;2023-07-20T04:57:59;2;2;
63915;PMS5003;50094;51.356;-0.196;2023-07-20T05:00:26;2;2;
63915;PMS5003;50094;51.356;-0.196;2023-07-20T05:02:53;3;3;
63915;PMS5003;50094;51.356;-0.196;2023-07-20T05:05:20;2;2;
63915;PMS5003;50094;51.356;-0.196;2023-07-20T05:07:47;1;1;
63915;PMS5003;50094;51.356;-0.196;2023-07-20T05:10:14;3;3;
63915;PMS5003;50094;51.356;-0.196;2023-07-20T05:12:41;0;0;
63915;PMS5003;50094;51.356;-0.196;2023-07-20T05:15:08;1;1;
63915;PMS5003;50094;51.356;-0.196;2023-07-20T05:17:36;3;3;
63915;PMS5003;50094;51.356;-0.196;2023-07-20T05:20:04;3;2;
63915;PMS5003;50094;51.356;-0.196;2023-07-20T05:22:32;4;2;
63915;PMS5003;50094;51.356;-0.196;2023-07-20T05:24:59;2;2;
63915;PMS5003;50094;51.356;-0.196;2023-07-20T05:27:26;2;1;
63915;PMS5003;50094;51.356;-0.196;2023-07-20T05:29:52;6;5;
63915;PMS5003;50094;51.356;-0.196;2023-07-20T05:32:19;3;3;
63915;PMS5003;50094;51.356;-0.196;2023-07-20T05:34:46;2;2;
63915;PMS5003;50094;51.356;-0.196;2023-07-20T05:37:13;3;3;
63915;PMS5003;50094;51.356;-0.196;2023-07-20T05:39:40;2;2;
63915;PMS5003;50094;51.356;-0.196;2023-07-20T05:42:07;13;10;
63915;PMS5003;50094;51.356;-0.196;2023-07-20T05:44:34;35;25;
63915;PMS5003;50094;51.356;-0.196;2023-07-20T05:47:02;31;25;
63915;PMS5003;50094;51.356;-0.196;2023-07-20T05:49:29;31;23;
63915;PMS5003;50094;51.356;-0.196;2023-07-20T05:51:56;25;15;
63915;PMS5003;50094;51.356;-0.196;2023-07-20T05:54:24;22;18;
63915;PMS5003;50094;51.356;-0.196;2023-07-20T05:56:51;23;18;
63915;PMS5003;50094;51.356;-0.196;2023-07-20T05:59:19;14;11;
63915;PMS5003;50094;51.356;-0.196;2023-07-20T06:01:46;15;9;
63915;PMS5003;50094;51.356;-0.196;2023-07-20T06:04:13;10;7;
63915;PMS5003;50094;51.356;-0.196;2023-07-20T06:06:40;12;10;
63915;PMS5003;50094;51.356;-0.196;2023-07-20T06:09:08;7;6;
63915;PMS5003;50094;51.356;-0.196;2023-07-20T06:11:36;13;9;
63915;PMS5003;50094;51.356;-0.196;2023-07-20T06:14:03;8;5;
63915;PMS5003;50094;51.356;-0.196;2023-07-20T06:16:30;10;7;
63915;PMS5003;50094;51.356;-0.196;2023-07-20T06:18:58;8;8;
63915;PMS5003;50094;51.356;-0.196;2023-07-20T06:21:26;9;7;
63915;PMS5003;50094;51.356;-0.196;2023-07-20T06:23:54;6;5;
63915;PMS5003;50094;51.356;-0.196;2023-07-20T06:26:21;4;4;
63915;PMS5003;50094;51.356;-0.196;2023-07-20T06:28:49;10;9;
63915;PMS5003;50094;51.356;-0.196;2023-07-20T06:31:16;6;5;
63915;PMS5003;50094;51.356;-0.196;2023-07-20T06:33:43;5;5;
63915;PMS5003;50094;51.356;-0.196;2023-07-20T06:36:11;3;3;
63915;PMS5003;50094;51.356;-0.196;2023-07-20T06:38:38;8;5;
63915;PMS5003;50094;51.356;-0.196;2023-07-20T06:41:04;10;9;
63915;PMS5003;50094;51.356;-0.196;2023-07-20T06:43:32;6;4;
63915;PMS5003;50094;51.356;-0.196;2023-07-20T06:45:59;5;5;
63915;PMS5003;50094;51.356;-0.196;2023-07-20T06:48:26;4;3;
63915;PMS5003;50094;51.356;-0.196;2023-07-20T06:50:53;9;5;
63915;PMS5003;50094;51.356;-0.196;2023-07-20T06:53:20;9;6;
63915;PMS5003;50094;51.356;-0.196;2023-07-20T06:55:47;6;5;
63915;PMS5003;50094;51.356;-0.196;2023-07-20T06:58:14;3;3;
63915;PMS5003;50094;51.356;-0.196;2023-07-20T07:00:42;3;2;
63915;PMS5003;50094;51.356;-0.196;2023-07-20T07:03:10;1;1;
63915;PMS5003;50094;51.356;-0.196;2023-07-20T07:05:37;7;4;
63915;PMS5003;50094;51.356;-0.196;2023-07-20T07:08:04;4;4;
63915;PMS5003;50094;51.356;-0.196;2023-07-20T07:10:32;6;3;
63915;PMS5003;50094;51.356;-0.196;2023-07-20T07:13:01;5;5;
63915;PMS5003;50094;51.356;-0.196;2023-07-20T07:15:28;3;2;
63915;PMS5003;50094;51.356;-0.196;2023-07-20T07:17:54;4;3;
63915;PMS5003;50094;51.356;-0.196;2023-07-20T07:20:21;3;3;
63915;PMS5003;50094;51.356;-0.196;2023-07-20T07:22:49;4;2;
63915;PMS5003;50094;51.356;-0.196;2023-07-20T07:25:17;2;2;
63915;PMS5003;50094;51.356;-0.196;2023-07-20T07:27:44;7;5;
63915;PMS5003;50094;51.356;-0.196;2023-07-20T07:30:12;6;3;
63915;PMS5003;50094;51.356;-0.196;2023-07-20T07:32:39;5;4;
63915;PMS5003;50094;51.356;-0.196;2023-07-20T07:35:06;2;2;
63915;PMS5003;50094;51.356;-0.196;2023-07-20T07:37:34;5;2;
63915;PMS5003;50094;51.356;-0.196;2023-07-20T07:40:01;3;3;
63915;PMS5003;50094;51.356;-0.196;2023-07-20T07:42:28;2;2;
63915;PMS5003;50094;51.356;-0.196;2023-07-20T07:44:56;2;2;
63915;PMS5003;50094;51.356;-0.196;2023-07-20T07:47:24;4;4;
63915;PMS5003;50094;51.356;-0.196;2023-07-20T07:49:50;1;1;
63915;PMS5003;50094;51.356;-0.196;2023-07-20T07:52:17;3;3;
63915;PMS5003;50094;51.356;-0.196;2023-07-20T07:54:44;2;2;
63915;PMS5003;50094;51.356;-0.196;2023-07-20T07:57:11;4;2;
63915;PMS5003;50094;51.356;-0.196;2023-07-20T07:59:38;4;4;
63915;PMS5003;50094;51.356;-0.196;2023-07-20T08:02:05;1;1;
63915;PMS5003;50094;51.356;-0.196;2023-07-20T08:04:32;5;3;
63915;PMS5003;50094;51.356;-0.196;2023-07-20T08:06:59;2;2;
63915;PMS5003;50094;51.356;-0.196;2023-07-20T08:09:27;1;1;
63915;PMS5003;50094;51.356;-0.196;2023-07-20T08:11:53;4;4;
63915;PMS5003;50094;51.356;-0.196;2023-07-20T08:14:20;2;2;
63915;PMS5003;50094;51.356;-0.196;2023-07-20T08:16:47;1;1;
63915;PMS5003;50094;51.356;-0.196;2023-07-20T08:19:15;2;2;
63915;PMS5003;50094;51.356;-0.196;2023-07-20T08:21:41;3;3;
63915;PMS5003;50094;51.356;-0.196;2023-07-20T08:24:08;1;1;
63915;PMS5003;50094;51.356;-0.196;2023-07-20T08:26:35;3;2;
63915;PMS5003;50094;51.356;-0.196;2023-07-20T08:29:02;1;1;
63915;PMS5003;50094;51.356;-0.196;2023-07-20T08:31:29;2;2;
63915;PMS5003;50094;51.356;-0.196;2023-07-20T08:33:55;2;2;
63915;PMS5003;50094;51.356;-0.196;2023-07-20T08:36:22;3;3;
63915;PMS5003;50094;51.356;-0.196;2023-07-20T08:38:49;3;1;
63915;PMS5003;50094;51.356;-0.196;2023-07-20T08:41:16;3;3;
63915;PMS5003;50094;51.356;-0.196;2023-07-20T08:43:43;1;1;
63915;PMS5003;50094;51.356;-0.196;2023-07-20T08:46:14;2;1;
63915;PMS5003;50094;51.356;-0.196;2023-07-20T08:48:42;3;3;
63915;PMS5003;50094;51.356;-0.196;2023-07-20T08:51:10;0;0;
63915;PMS5003;50094;51.356;-0.196;2023-07-20T08:53:38;2;2;
63915;PMS5003;50094;51.356;-0.196;2023-07-20T08:56:06;3;2;
63915;PMS5003;50094;51.356;-0.196;2023-07-20T08:58:36;4;3;
63915;PMS5003;50094;51.356;-0.196;2023-07-20T09:01:04;2;0;
63915;PMS5003;50094;51.356;-0.196;2023-07-20T09:03:32;2;2;
63915;PMS5003;50094;51.356;-0.196;2023-07-20T09:05:59;1;1;
63915;PMS5003;50094;51.356;-0.196;2023-07-20T09:08:27;6;2;
63915;PMS5003;50094;51.356;-0.196;2023-07-20T09:10:54;4;3;
63915;PMS5003;50094;51.356;-0.196;2023-07-20T09:13:21;2;1;
63915;PMS5003;50094;51.356;-0.196;2023-07-20T09:15:48;3;2;
63915;PMS5003;50094;51.356;-0.196;2023-07-20T09:18:27;2;2;
63915;PMS5003;50094;51.356;-0.196;2023-07-20T09:20:58;2;2;
63915;PMS5003;50094;51.356;-0.196;2023-07-20T09:23:29;2;2;
63915;PMS5003;50094;51.356;-0.196;2023-07-20T09:25:57;2;2;
63915;PMS5003;50094;51.356;-0.196;2023-07-20T09:28:25;3;2;
63915;PMS5003;50094;51.356;-0.196;2023-07-20T09:30:54;3;1;
63915;PMS5003;50094;51.356;-0.196;2023-07-20T09:33:21;1;1;
63915;PMS5003;50094;51.356;-0.196;2023-07-20T09:35:49;3;3;
63915;PMS5003;50094;51.356;-0.196;2023-07-20T09:38:17;1;0;
63915;PMS5003;50094;51.356;-0.196;2023-07-20T09:40:44;2;2;
63915;PMS5003;50094;51.356;-0.196;2023-07-20T09:43:12;0;0;
63915;PMS5003;50094;51.356;-0.196;2023-07-20T09:45:42;2;0;
63915;PMS5003;50094;51.356;-0.196;2023-07-20T09:48:10;3;3;
63915;PMS5003;50094;51.356;-0.196;2023-07-20T09:50:39;2;2;
63915;PMS5003;50094;51.356;-0.196;2023-07-20T09:53:07;3;1;
63915;PMS5003;50094;51.356;-0.196;2023-07-20T09:55:35;2;2;
63915;PMS5003;50094;51.356;-0.196;2023-07-20T09:58:03;2;2;
63915;PMS5003;50094;51.356;-0.196;2023-07-20T10:00:32;2;2;
63915;PMS5003;50094;51.356;-0.196;2023-07-20T10:03:01;1;1;
63915;PMS5003;50094;51.356;-0.196;2023-07-20T10:05:32;2;1;
63915;PMS5003;50094;51.356;-0.196;2023-07-20T10:08:01;1;1;
63915;PMS5003;50094;51.356;-0.196;2023-07-20T10:10:29;6;1;
63915;PMS5003;50094;51.356;-0.196;2023-07-20T10:12:59;1;1;
63915;PMS5003;50094;51.356;-0.196;2023-07-20T10:15:29;2;2;
63915;PMS5003;50094;51.356;-0.196;2023-07-20T10:18:01;1;0;
63915;PMS5003;50094;51.356;-0.196;2023-07-20T10:20:34;3;2;
63915;PMS5003;50094;51.356;-0.196;2023-07-20T10:23:03;2;2;
63915;PMS5003;50094;51.356;-0.196;2023-07-20T10:25:31;2;1;
63915;PMS5003;50094;51.356;-0.196;2023-07-20T10:27:59;3;1;
63915;PMS5003;50094;51.356;-0.196;2023-07-20T10:30:28;2;2;
63915;PMS5003;50094;51.356;-0.196;2023-07-20T10:32:55;2;1;
63915;PMS5003;50094;51.356;-0.196;2023-07-20T10:35:23;1;1;
63915;PMS5003;50094;51.356;-0.196;2023-07-20T10:37:51;1;1;
63915;PMS5003;50094;51.356;-0.196;2023-07-20T10:40:27;2;2;
63915;PMS5003;50094;51.356;-0.196;2023-07-20T10:42:56;4;1;
63915;PMS5003;50094;51.356;-0.196;2023-07-20T10:45:33;2;2;
63915;PMS5003;50094;51.356;-0.196;2023-07-20T10:48:03;2;2;
63915;PMS5003;50094;51.356;-0.196;2023-07-20T10:50:31;0;0;
63915;PMS5003;50094;51.356;-0.196;2023-07-20T10:53:09;0;0;
63915;PMS5003;50094;51.356;-0.196;2023-07-20T10:55:38;1;1;
63915;PMS5003;50094;51.356;-0.196;2023-07-20T10:58:06;1;1;
63915;PMS5003;50094;51.356;-0.196;2023-07-20T11:00:34;2;2;
63915;PMS5003;50094;51.356;-0.196;2023-07-20T11:03:02;1;1;
63915;PMS5003;50094;51.356;-0.196;2023-07-20T11:05:33;2;2;
63915;PMS5003;50094;51.356;-0.196;2023-07-20T11:08:03;2;2;
63915;PMS5003;50094;51.356;-0.196;2023-07-20T11:10:32;1;1;
63915;PMS5003;50094;51.356;-0.196;2023-07-20T11:13:16;2;1;
63915;PMS5003;50094;51.356;-0.196;2023-07-20T11:15:45;3;1;
63915;PMS5003;50094;51.356;-0.196;2023-07-20T11:18:12;1;1;
63915;PMS5003;50094;51.356;-0.196;2023-07-20T11:20:40;1;1;
63915;PMS5003;50094;51.356;-0.196;2023-07-20T11:23:07;2;2;
63915;PMS5003;50094;51.356;-0.196;2023-07-20T11:25:37;1;1;
63915;PMS5003;50094;51.356;-0.196;2023-07-20T11:28:07;0;0;
63915;PMS5003;50094;51.356;-0.196;2023-07-20T11:30:35;2;1;
63915;PMS5003;50094;51.356;-0.196;2023-07-20T11:33:02;3;1;
63915;PMS5003;50094;51.356;-0.196;2023-07-20T11:35:30;2;2;
63915;PMS5003;50094;51.356;-0.196;2023-07-20T11:37:58;2;2;
63915;PMS5003;50094;51.356;-0.196;2023-07-20T11:40:25;1;1;
63915;PMS5003;50094;51.356;-0.196;2023-07-20T11:42:52;1;1;
63915;PMS5003;50094;51.356;-0.196;2023-07-20T11:45:20;0;0;
63915;PMS5003;50094;51.356;-0.196;2023-07-20T11:47:47;0;0;
63915;PMS5003;50094;51.356;-0.196;2023-07-20T11:50:15;1;1;
63915;PMS5003;50094;51.356;-0.196;2023-07-20T11:52:42;1;1;
63915;PMS5003;50094;51.356;-0.196;2023-07-20T11:55:10;1;1;
63915;PMS5003;50094;51.356;-0.196;2023-07-20T11:57:38;1;1;
63915;PMS5003;50094;51.356;-0.196;2023-07-20T12:00:05;1;1;
63915;PMS5003;50094;51.356;-0.196;2023-07-20T12:02:33;3;3;
63915;PMS5003;50094;51.356;-0.196;2023-07-20T12:05:02;0;0;
63915;PMS5003;50094;51.356;-0.196;2023-07-20T12:07:34;2;1;
63915;PMS5003;50094;51.356;-0.196;2023-07-20T12:10:03;1;1;
63915;PMS5003;50094;51.356;-0.196;2023-07-20T12:12:31;0;0;
63915;PMS5003;50094;51.356;-0.196;2023-07-20T12:15:11;1;1;
63915;PMS5003;50094;51.356;-0.196;2023-07-20T12:17:41;0;0;
63915;PMS5003;50094;51.356;-0.196;2023-07-20T12:20:09;0;0;
63915;PMS5003;50094;51.356;-0.196;2023-07-20T12:22:39;0;0;
63915;PMS5003;50094;51.356;-0.196;2023-07-20T12:25:06;1;1;
63915;PMS5003;50094;51.356;-0.196;2023-07-20T12:27:35;2;2;
63915;PMS5003;50094;51.356;-0.196;2023-07-20T12:30:04;0;0;
63915;PMS5003;50094;51.356;-0.196;2023-07-20T12:32:32;0;0;
63915;PMS5003;50094;51.356;-0.196;2023-07-20T12:35:00;1;1;
63915;PMS5003;50094;51.356;-0.196;2023-07-20T12:37:27;1;1;
63915;PMS5003;50094;51.356;-0.196;2023-07-20T12:39:55;1;1;
63915;PMS5003;50094;51.356;-0.196;2023-07-20T12:42:22;3;2;
63915;PMS5003;50094;51.356;-0.196;2023-07-20T12:44:49;0;0;
63915;PMS5003;50094;51.356;-0.196;2023-07-20T12:47:17;1;1;
63915;PMS5003;50094;51.356;-0.196;2023-07-20T12:49:44;0;0;
63915;PMS5003;50094;51.356;-0.196;2023-07-20T12:52:11;1;1;
63915;PMS5003;50094;51.356;-0.196;2023-07-20T12:54:38;1;1;
63915;PMS5003;50094;51.356;-0.196;2023-07-20T12:57:05;0;0;
63915;PMS5003;50094;51.356;-0.196;2023-07-20T12:59:32;2;2;
63915;PMS5003;50094;51.356;-0.196;2023-07-20T13:01:59;2;1;
63915;PMS5003;50094;51.356;-0.196;2023-07-20T13:04:27;1;1;
63915;PMS5003;50094;51.356;-0.196;2023-07-20T13:06:54;1;1;
63915;PMS5003;50094;51.356;-0.196;2023-07-20T13:09:22;0;0;
63915;PMS5003;50094;51.356;-0.196;2023-07-20T13:11:49;1;1;
63915;PMS5003;50094;51.356;-0.196;2023-07-20T13:14:15;0;0;
63915;PMS5003;50094;51.356;-0.196;2023-07-20T13:16:42;1;1;
63915;PMS5003;50094;51.356;-0.196;2023-07-20T13:19:09;2;2;
63915;PMS5003;50094;51.356;-0.196;2023-07-20T13:21:36;2;0;
63915;PMS5003;50094;51.356;-0.196;2023-07-20T13:24:03;3;1;
63915;PMS5003;50094;51.356;-0.196;2023-07-20T13:26:30;2;0;
63915;PMS5003;50094;51.356;-0.196;2023-07-20T13:28:57;0;0;
63915;PMS5003;50094;51.356;-0.196;2023-07-20T13:31:24;1;1;
63915;PMS5003;50094;51.356;-0.196;2023-07-20T13:33:51;0;0;
63915;PMS5003;50094;51.356;-0.196;2023-07-20T13:36:18;0;0;
63915;PMS5003;50094;51.356;-0.196;2023-07-20T13:38:45;1;1;
63915;PMS5003;50094;51.356;-0.196;2023-07-20T13:41:13;1;1;
63915;PMS5003;50094;51.356;-0.196;2023-07-20T13:43:40;1;1;
63915;PMS5003;50094;51.356;-0.196;2023-07-20T13:46:07;1;1;
63915;PMS5003;50094;51.356;-0.196;2023-07-20T13:48:34;0;0;
63915;PMS5003;50094;51.356;-0.196;2023-07-20T13:51:01;2;0;
63915;PMS5003;50094;51.356;-0.196;2023-07-20T13:53:28;4;1;
63915;PMS5003;50094;51.356;-0.196;2023-07-20T13:55:54;2;1;
63915;PMS5003;50094;51.356;-0.196;2023-07-20T13:58:21;0;0;
63915;PMS5003;50094;51.356;-0.196;2023-07-20T14:00:48;1;0;
63915;PMS5003;50094;51.356;-0.196;2023-07-20T14:03:15;1;0;
63915;PMS5003;50094;51.356;-0.196;2023-07-20T14:05:42;0;0;
63915;PMS5003;50094;51.356;-0.196;2023-07-20T14:08:09;1;1;
63915;PMS5003;50094;51.356;-0.196;2023-07-20T14:10:36;0;0;
63915;PMS5003;50094;51.356;-0.196;2023-07-20T14:13:03;2;2;
63915;PMS5003;50094;51.356;-0.196;2023-07-20T14:15:30;2;1;
63915;PMS5003;50094;51.356;-0.196;2023-07-20T14:17:58;0;0;
63915;PMS5003;50094;51.356;-0.196;2023-07-20T14:20:25;4;1;
63915;PMS5003;50094;51.356;-0.196;2023-07-20T14:22:53;1;1;
63915;PMS5003;50094;51.356;-0.196;2023-07-20T14:25:19;1;1;
63915;PMS5003;50094;51.356;-0.196;2023-07-20T14:27:46;1;1;
63915;PMS5003;50094;51.356;-0.196;2023-07-20T14:30:14;1;1;
63915;PMS5003;50094;51.356;-0.196;2023-07-20T14:32:42;0;0;
63915;PMS5003;50094;51.356;-0.196;2023-07-20T14:35:09;1;1;
63915;PMS5003;50094;51.356;-0.196;2023-07-20T14:37:36;1;1;
63915;PMS5003;50094;51.356;-0.196;2023-07-20T14:40:03;0;0;
63915;PMS5003;50094;51.356;-0.196;2023-07-20T14:42:31;1;1;
63915;PMS5003;50094;51.356;-0.196;2023-07-20T14:44:58;2;1;
63915;PMS5003;50094;51.356;-0.196;2023-07-20T14:47:25;1;1;
63915;PMS5003;50094;51.356;-0.196;2023-07-20T14:49:52;3;1;
63915;PMS5003;50094;51.356;-0.196;2023-07-20T14:52:19;1;1;
63915;PMS5003;50094;51.356;-0.196;2023-07-20T14:54:45;2;2;
63915;PMS5003;50094;51.356;-0.196;2023-07-20T14:57:12;2;0;
63915;PMS5003;50094;51.356;-0.196;2023-07-20T14:59:39;1;1;
63915;PMS5003;50094;51.356;-0.196;2023-07-20T15:02:06;1;1;
63915;PMS5003;50094;51.356;-0.196;2023-07-20T15:04:33;0;0;
63915;PMS5003;50094;51.356;-0.196;2023-07-20T15:07:00;1;1;
63915;PMS5003;50094;51.356;-0.196;2023-07-20T15:09:27;0;0;
63915;PMS5003;50094;51.356;-0.196;2023-07-20T15:11:54;0;0;
63915;PMS5003;50094;51.356;-0.196;2023-07-20T15:14:22;0;0;
63915;PMS5003;50094;51.356;-0.196;2023-07-20T15:16:48;1;1;
63915;PMS5003;50094;51.356;-0.196;2023-07-20T15:19:15;0;0;
63915;PMS5003;50094;51.356;-0.196;2023-07-20T15:21:42;1;1;
63915;PMS5003;50094;51.356;-0.196;2023-07-20T15:24:09;0;0;
63915;PMS5003;50094;51.356;-0.196;2023-07-20T15:26:36;0;0;
63915;PMS5003;50094;51.356;-0.196;2023-07-20T15:29:02;1;1;
63915;PMS5003;50094;51.356;-0.196;2023-07-20T15:31:29;0;0;
63915;PMS5003;50094;51.356;-0.196;2023-07-20T15:33:57;3;2;
63915;PMS5003;50094;51.356;-0.196;2023-07-20T15:36:24;0;0;
63915;PMS5003;50094;51.356;-0.196;2023-07-20T15:38:51;1;0;
63915;PMS5003;50094;51.356;-0.196;2023-07-20T15:41:18;6;1;
63915;PMS5003;50094;51.356;-0.196;2023-07-20T15:43:46;2;2;
63915;PMS5003;50094;51.356;-0.196;2023-07-20T15:46:43;3;2;
63915;PMS5003;50094;51.356;-0.196;2023-07-20T15:49:11;1;1;
63915;PMS5003;50094;51.356;-0.196;2023-07-20T15:51:39;1;1;
63915;PMS5003;50094;51.356;-0.196;2023-07-20T15:54:08;1;1;
63915;PMS5003;50094;51.356;-0.196;2023-07-20T15:56:36;1;1;
63915;PMS5003;50094;51.356;-0.196;2023-07-20T15:59:05;0;0;
63915;PMS5003;50094;51.356;-0.196;2023-07-20T16:01:33;0;0;
63915;PMS5003;50094;51.356;-0.196;2023-07-20T16:04:01;1;1;
63915;PMS5003;50094;51.356;-0.196;2023-07-20T16:06:28;0;0;
63915;PMS5003;50094;51.356;-0.196;2023-07-20T16:08:56;1;1;
63915;PMS5003;50094;51.356;-0.196;2023-07-20T16:11:24;1;1;
63915;PMS5003;50094;51.356;-0.196;2023-07-20T16:13:51;3;2;
63915;PMS5003;50094;51.356;-0.196;2023-07-20T16:16:19;0;0;
63915;PMS5003;50094;51.356;-0.196;2023-07-20T16:18:45;0;0;
63915;PMS5003;50094;51.356;-0.196;2023-07-20T16:21:14;1;1;
63915;PMS5003;50094;51.356;-0.196;2023-07-20T16:23:41;0;0;
63915;PMS5003;50094;51.356;-0.196;2023-07-20T16:26:08;1;1;
63915;PMS5003;50094;51.356;-0.196;2023-07-20T16:28:35;1;1;
63915;PMS5003;50094;51.356;-0.196;2023-07-20T16:31:08;3;1;
63915;PMS5003;50094;51.356;-0.196;2023-07-20T16:33:35;1;1;
63915;PMS5003;50094;51.356;-0.196;2023-07-20T16:36:03;0;0;
63915;PMS5003;50094;51.356;-0.196;2023-07-20T16:38:34;1;1;